Terminal Aerodrome Forecast
Issued by NWS Binghamton, NY

Home | Current Version | Previous Version | Text Only | Print | Product List | Glossary On
Versions: 1 2 3 4 5 6 7 8 9 10 11 12 13 14 15
255
FTUS41 KBGM 230537
TAFBGM
TAF
KBGM 230537Z 2306/2406 19006KT P6SM BKN045
      TEMPO 2309/2312 1SM BR BKN009
     FM231500 20011G22KT P6SM BKN035
     FM240000 28005KT P6SM BKN030
     FM240400 31004KT P6SM BKN015=

USA.gov is the U.S. government's official web portal to all federal, state and local government web resources and services.